Weather at Ula Platform

Public forecast

Using degrees Celsius for public forecast. Weather courtesy of forecast.io.

Current aviation weather report (METAR) for Ula Platform

2022/11/27 09:20 (retrieved 27 minutes ago)

ENLA 270920Z AUTO 17024KT 6000NDV FEW008/// 10/10 Q1008 W///S5

Closest aviation forecast (TAF) to Ula Platform

Closest forecast is Stavanger Airport, Sola, 138.2 nm (256.0 km) NE.

2022/11/27 06:57 (retrieved 3 hours ago)

TAF ENZV 270500Z 2706/2806 14018KT 9999 -RA FEW020 BKN030 TEMPO 2706/2715 15022G35KT TEMPO 2706/2806 RA BKN014 TEMPO 2715/2724 14015G30KT